createdAt,value
2017-01-06T00:00:46.106Z,1060.52
2017-01-06T00:01:46.087Z,1060.52
2017-01-06T00:02:46.068Z,1060.53
2017-01-06T00:03:46.049Z,1060.51
2017-01-06T00:04:46.029Z,1060.52
2017-01-06T00:05:46.009Z,1060.53
2017-01-06T00:06:45.990Z,1060.52
2017-01-06T00:07:45.971Z,1060.56
2017-01-06T00:08:45.951Z,1060.6
2017-01-06T00:09:45.932Z,1060.6
2017-01-06T00:10:45.913Z,1060.66
2017-01-06T00:11:45.893Z,1060.6
2017-01-06T00:12:45.874Z,1060.63
2017-01-06T00:13:45.855Z,1060.58
2017-01-06T00:14:45.835Z,1060.62
2017-01-06T00:15:45.816Z,1060.66
2017-01-06T00:16:45.796Z,1060.64
2017-01-06T00:17:45.777Z,1060.67
2017-01-06T00:18:45.758Z,1060.63
2017-01-06T00:19:45.738Z,1060.64
2017-01-06T00:20:45.718Z,1060.65
2017-01-06T00:21:45.701Z,1060.61
2017-01-06T00:22:45.679Z,1060.6
2017-01-06T00:23:45.660Z,1060.6
2017-01-06T00:24:45.641Z,1060.56
2017-01-06T00:25:45.621Z,1060.63
2017-01-06T00:26:45.601Z,1060.66
2017-01-06T00:27:45.582Z,1060.65
2017-01-06T00:28:45.563Z,1060.65
2017-01-06T00:29:45.545Z,1060.67
2017-01-06T00:30:45.525Z,1060.67
2017-01-06T00:31:45.505Z,1060.66
2017-01-06T00:32:45.485Z,1060.72
2017-01-06T00:33:45.465Z,1060.67
2017-01-06T00:34:45.446Z,1060.67
2017-01-06T00:35:45.427Z,1060.68
2017-01-06T00:36:45.413Z,1060.66
2017-01-06T00:37:45.387Z,1060.67
2017-01-06T00:38:45.368Z,1060.7
2017-01-06T00:39:45.349Z,1060.7
2017-01-06T00:40:45.330Z,1060.76
2017-01-06T00:41:45.310Z,1060.72
2017-01-06T00:42:45.290Z,1060.75
2017-01-06T00:43:45.271Z,1060.75
2017-01-06T00:44:45.251Z,1060.8
2017-01-06T00:45:45.232Z,1060.79
2017-01-06T00:46:45.213Z,1060.81
2017-01-06T00:47:45.193Z,1060.81
2017-01-06T00:48:45.173Z,1060.79
2017-01-06T00:49:45.154Z,1060.76
2017-01-06T00:50:45.135Z,1060.78
2017-01-06T00:51:45.115Z,1060.76
2017-01-06T00:52:45.095Z,1060.76
2017-01-06T00:53:45.076Z,1060.75
2017-01-06T00:54:45.057Z,1060.72
2017-01-06T00:55:45.041Z,1060.76
2017-01-06T00:56:45.017Z,1060.79
2017-01-06T00:57:57.816Z,1060.73
2017-01-06T00:58:57.796Z,1060.78
2017-01-06T00:59:57.777Z,1060.76
2017-01-06T01:00:57.757Z,1060.78
2017-01-06T01:01:57.737Z,1060.79
2017-01-06T01:02:57.718Z,1060.79
2017-01-06T01:03:57.699Z,1060.79
2017-01-06T01:04:57.679Z,1060.8
2017-01-06T01:05:57.659Z,1060.84
2017-01-06T01:06:57.640Z,1060.82
2017-01-06T01:07:57.621Z,1060.86
2017-01-06T01:08:57.600Z,1060.87
2017-01-06T01:09:57.581Z,1060.87
2017-01-06T01:10:57.562Z,1060.93
2017-01-06T01:11:57.543Z,1060.96
2017-01-06T01:12:57.523Z,1060.95
2017-01-06T01:13:57.504Z,1060.99
2017-01-06T01:14:57.484Z,1060.96
2017-01-06T01:15:57.464Z,1060.99
2017-01-06T01:16:57.444Z,1061
2017-01-06T01:17:57.425Z,1060.99
2017-01-06T01:18:57.407Z,1060.99
2017-01-06T01:19:57.385Z,1061.04
2017-01-06T01:20:57.366Z,1061.05
2017-01-06T01:21:57.347Z,1061.04
2017-01-06T01:22:57.328Z,1061.03
2017-01-06T01:23:57.307Z,1060.99
2017-01-06T01:24:57.288Z,1061.03
2017-01-06T01:25:57.268Z,1061.07
2017-01-06T01:26:57.249Z,1061.06
2017-01-06T01:27:57.228Z,1061.08
2017-01-06T01:28:57.210Z,1061.14
2017-01-06T01:29:57.191Z,1061.14
2017-01-06T01:30:57.170Z,1061.16
2017-01-06T01:31:57.150Z,1061.15
2017-01-06T01:32:57.131Z,1061.15
2017-01-06T01:33:57.112Z,1061.17
2017-01-06T01:34:57.092Z,1061.17
2017-01-06T01:35:57.072Z,1061.15
2017-01-06T01:36:57.057Z,1061.15
2017-01-06T01:37:57.032Z,1061.22
2017-01-06T01:38:57.013Z,1061.19
2017-01-06T01:39:56.993Z,1061.15
2017-01-06T01:40:56.974Z,1061.18
2017-01-06T01:41:56.954Z,1061.19
2017-01-06T01:42:56.935Z,1061.18
2017-01-06T01:43:56.915Z,1061.16
2017-01-06T01:44:56.896Z,1061.16
2017-01-06T01:45:56.876Z,1061.15
2017-01-06T01:46:56.857Z,1061.18
2017-01-06T01:47:56.838Z,1061.17
2017-01-06T01:48:56.817Z,1061.19
2017-01-06T01:49:56.798Z,1061.15
2017-01-06T01:50:56.781Z,1061.18
2017-01-06T01:51:56.759Z,1061.23
2017-01-06T01:52:56.739Z,1061.22
2017-01-06T01:53:56.720Z,1061.24
2017-01-06T01:54:56.700Z,1061.28
2017-01-06T01:55:56.679Z,1061.32
2017-01-06T01:56:56.660Z,1061.39
2017-01-06T01:57:56.641Z,1061.47
2017-01-06T01:58:56.622Z,1061.44
2017-01-06T01:59:56.603Z,1061.42
2017-01-06T02:00:56.581Z,1061.45
2017-01-06T02:01:56.562Z,1061.47
2017-01-06T02:02:56.543Z,1061.47
2017-01-06T02:03:56.523Z,1061.49
2017-01-06T02:04:56.503Z,1061.48
2017-01-06T02:05:56.483Z,1061.47
2017-01-06T02:06:56.463Z,1061.47
2017-01-06T02:07:56.443Z,1061.46
2017-01-06T02:08:56.424Z,1061.53
2017-01-06T02:09:56.405Z,1061.5
2017-01-06T02:10:56.384Z,1061.49
2017-01-06T02:11:56.364Z,1061.53
2017-01-06T02:12:56.345Z,1061.51
2017-01-06T02:13:56.326Z,1061.56
2017-01-06T02:14:56.305Z,1061.59
2017-01-06T02:15:56.285Z,1061.59
2017-01-06T02:16:56.266Z,1061.6
2017-01-06T02:17:56.246Z,1061.66
2017-01-06T02:18:56.226Z,1061.66
2017-01-06T02:19:56.207Z,1061.66
2017-01-06T02:20:56.189Z,1061.66
2017-01-06T02:21:56.166Z,1061.67
2017-01-06T02:22:56.147Z,1061.63
2017-01-06T02:23:56.127Z,1061.66
2017-01-06T02:24:56.108Z,1061.64
2017-01-06T02:25:56.090Z,1061.66
2017-01-06T02:26:56.069Z,1061.69
2017-01-06T02:27:56.049Z,1061.67
2017-01-06T02:28:56.029Z,1061.68
2017-01-06T02:29:56.009Z,1061.68
2017-01-06T02:30:55.989Z,1061.74
2017-01-06T02:31:55.969Z,1061.78
2017-01-06T02:32:55.949Z,1061.77
2017-01-06T02:33:55.929Z,1061.79
2017-01-06T02:34:55.910Z,1061.77
2017-01-06T02:35:55.891Z,1061.8
2017-01-06T02:36:55.869Z,1061.83
2017-01-06T02:37:55.850Z,1061.85
2017-01-06T02:38:55.830Z,1061.83
2017-01-06T02:39:55.810Z,1061.87
2017-01-06T02:40:55.790Z,1061.87
2017-01-06T02:41:55.770Z,1061.82
2017-01-06T02:42:55.751Z,1061.86
2017-01-06T02:43:55.730Z,1061.86
2017-01-06T02:44:55.710Z,1061.81
2017-01-06T02:45:55.690Z,1061.82
2017-01-06T02:46:55.670Z,1061.84
2017-01-06T02:47:55.650Z,1061.84
2017-01-06T02:48:55.631Z,1061.86
2017-01-06T02:49:55.610Z,1061.87
2017-01-06T02:50:55.590Z,1061.87
2017-01-06T02:51:55.570Z,1061.9
2017-01-06T02:52:55.550Z,1061.93
2017-01-06T02:53:55.530Z,1061.9
2017-01-06T02:54:55.510Z,1061.92
2017-01-06T02:55:55.490Z,1061.93
2017-01-06T02:56:55.470Z,1061.95
2017-01-06T02:57:55.451Z,1061.97
2017-01-06T02:58:55.430Z,1061.96
2017-01-06T02:59:55.410Z,1061.98
2017-01-06T03:00:55.391Z,1062
2017-01-06T03:01:55.369Z,1062.04
2017-01-06T03:02:55.350Z,1062.06
2017-01-06T03:03:55.330Z,1062.05
2017-01-06T03:04:55.310Z,1062.02
2017-01-06T03:05:55.289Z,1062.09
2017-01-06T03:06:55.269Z,1062.07
2017-01-06T03:07:55.250Z,1062.08
2017-01-06T03:08:55.230Z,1062.11
2017-01-06T03:09:55.211Z,1062.11
2017-01-06T03:10:55.189Z,1062.07
2017-01-06T03:11:55.169Z,1062.11
2017-01-06T03:12:55.148Z,1062.12
2017-01-06T03:13:55.129Z,1062.15
2017-01-06T03:14:55.112Z,1062.17
2017-01-06T03:15:55.089Z,1062.2
2017-01-06T03:16:55.068Z,1062.22
2017-01-06T03:17:55.049Z,1062.18
2017-01-06T03:18:55.030Z,1062.23
2017-01-06T03:19:55.009Z,1062.24
2017-01-06T03:20:54.989Z,1062.21
2017-01-06T03:21:54.970Z,1062.24
2017-01-06T03:22:54.950Z,1062.25
2017-01-06T03:23:54.929Z,1062.22
2017-01-06T03:24:54.910Z,1062.25
2017-01-06T03:25:54.890Z,1062.29
2017-01-06T03:26:54.870Z,1062.27
2017-01-06T03:27:54.849Z,1062.29
2017-01-06T03:28:54.829Z,1062.29
2017-01-06T03:29:54.810Z,1062.26
2017-01-06T03:30:54.789Z,1062.3
2017-01-06T03:31:54.769Z,1062.33
2017-01-06T03:32:54.750Z,1062.33
2017-01-06T03:33:54.729Z,1062.33
2017-01-06T03:34:54.709Z,1062.32
2017-01-06T03:35:54.689Z,1062.35
2017-01-06T03:36:54.669Z,1062.38
2017-01-06T03:37:54.649Z,1062.36
2017-01-06T03:38:54.629Z,1062.35
2017-01-06T03:39:54.608Z,1062.37
2017-01-06T03:40:54.589Z,1062.37
2017-01-06T03:41:54.568Z,1062.37
2017-01-06T03:42:54.548Z,1062.45
2017-01-06T03:43:54.528Z,1062.43
2017-01-06T03:44:54.511Z,1062.44
2017-01-06T03:45:54.488Z,1062.43
2017-01-06T03:46:54.468Z,1062.43
2017-01-06T03:47:54.448Z,1062.42
2017-01-06T03:48:54.428Z,1062.43
2017-01-06T03:49:54.407Z,1062.42
2017-01-06T03:50:54.388Z,1062.44
2017-01-06T03:51:54.368Z,1062.42
2017-01-06T03:52:54.347Z,1062.42
2017-01-06T03:53:54.328Z,1062.39
2017-01-06T03:54:54.308Z,1062.44
2017-01-06T03:55:54.288Z,1062.45
2017-01-06T03:56:54.267Z,1062.44
2017-01-06T03:57:54.247Z,1062.44
2017-01-06T03:58:54.228Z,1062.44
2017-01-06T03:59:54.208Z,1062.44
2017-01-06T04:00:54.187Z,1062.41
2017-01-06T04:01:54.168Z,1062.42
2017-01-06T04:02:54.148Z,1062.43
2017-01-06T04:03:54.127Z,1062.44
2017-01-06T04:04:54.107Z,1062.45
2017-01-06T04:05:54.087Z,1062.43
2017-01-06T04:06:54.068Z,1062.48
2017-01-06T04:07:54.047Z,1062.47
2017-01-06T04:08:54.027Z,1062.49
2017-01-06T04:09:54.007Z,1062.49
2017-01-06T04:10:53.988Z,1062.49
2017-01-06T04:11:53.967Z,1062.48
2017-01-06T04:12:53.947Z,1062.45
2017-01-06T04:13:53.927Z,1062.52
2017-01-06T04:14:53.907Z,1062.5
2017-01-06T04:15:53.887Z,1062.53
2017-01-06T04:16:53.867Z,1062.55
2017-01-06T04:17:53.848Z,1062.55
2017-01-06T04:18:53.826Z,1062.55
2017-01-06T04:19:53.807Z,1062.58
2017-01-06T04:20:53.787Z,1062.58
2017-01-06T04:21:53.767Z,1062.59
2017-01-06T04:22:53.747Z,1062.62
2017-01-06T04:23:53.727Z,1062.63
2017-01-06T04:24:53.707Z,1062.61
2017-01-06T04:25:53.687Z,1062.59
2017-01-06T04:26:53.667Z,1062.58
2017-01-06T04:27:53.647Z,1062.61
2017-01-06T04:28:53.627Z,1062.56
2017-01-06T04:29:53.606Z,1062.63
2017-01-06T04:30:53.587Z,1062.63
2017-01-06T04:31:53.568Z,1062.62
2017-01-06T04:32:53.547Z,1062.66
2017-01-06T04:33:53.527Z,1062.66
2017-01-06T04:34:53.507Z,1062.67
2017-01-06T04:35:53.487Z,1062.64
2017-01-06T04:36:53.466Z,1062.68
2017-01-06T04:37:53.447Z,1062.71
2017-01-06T04:38:53.427Z,1062.72
2017-01-06T04:39:53.407Z,1062.69
2017-01-06T04:40:53.387Z,1062.68
2017-01-06T04:41:53.368Z,1062.63
2017-01-06T04:42:53.347Z,1062.7
2017-01-06T04:43:53.327Z,1062.69
2017-01-06T04:44:53.306Z,1062.71
2017-01-06T04:45:53.286Z,1062.69
2017-01-06T04:46:53.267Z,1062.73
2017-01-06T04:47:53.246Z,1062.76
2017-01-06T04:48:53.226Z,1062.75
2017-01-06T04:49:53.206Z,1062.76
2017-01-06T04:50:53.187Z,1062.76
2017-01-06T04:51:53.166Z,1062.78
2017-01-06T04:52:53.146Z,1062.8
2017-01-06T04:53:53.126Z,1062.76
2017-01-06T04:54:53.106Z,1062.73
2017-01-06T04:55:53.086Z,1062.73
2017-01-06T04:56:53.067Z,1062.68
2017-01-06T04:57:53.047Z,1062.71
2017-01-06T04:58:53.026Z,1062.68
2017-01-06T04:59:53.006Z,1062.66
2017-01-06T05:00:52.986Z,1062.69
2017-01-06T05:01:52.967Z,1062.7
2017-01-06T05:02:52.946Z,1062.71
2017-01-06T05:03:52.926Z,1062.74
2017-01-06T05:04:52.907Z,1062.72
2017-01-06T05:05:52.886Z,1062.71
2017-01-06T05:06:52.866Z,1062.71
2017-01-06T05:07:52.846Z,1062.71
2017-01-06T05:08:52.826Z,1062.68
2017-01-06T05:09:52.805Z,1062.65
2017-01-06T05:10:52.786Z,1062.67
2017-01-06T05:11:52.766Z,1062.68
2017-01-06T05:12:52.746Z,1062.62
2017-01-06T05:13:52.725Z,1062.61
2017-01-06T05:14:52.706Z,1062.61
2017-01-06T05:15:52.686Z,1062.6
2017-01-06T05:16:52.666Z,1062.65
2017-01-06T05:17:52.646Z,1062.64
2017-01-06T05:18:52.626Z,1062.68
2017-01-06T05:19:52.606Z,1062.7
2017-01-06T05:20:52.585Z,1062.7
2017-01-06T05:21:52.566Z,1062.73
2017-01-06T05:22:52.546Z,1062.71
2017-01-06T05:23:52.527Z,1062.68
2017-01-06T05:24:52.506Z,1062.67
2017-01-06T05:25:52.486Z,1062.65
2017-01-06T05:26:52.467Z,1062.66
2017-01-06T05:27:52.446Z,1062.65
2017-01-06T05:28:52.427Z,1062.69
2017-01-06T05:29:52.408Z,1062.68
2017-01-06T05:30:52.387Z,1062.67
2017-01-06T05:31:52.366Z,1062.66
2017-01-06T05:32:52.347Z,1062.6
2017-01-06T05:33:52.327Z,1062.63
2017-01-06T05:34:52.307Z,1062.57
2017-01-06T05:35:52.287Z,1062.53
2017-01-06T05:36:52.267Z,1062.5
2017-01-06T05:37:52.248Z,1062.49
2017-01-06T05:38:52.227Z,1062.45
2017-01-06T05:39:52.207Z,1062.39
2017-01-06T05:40:52.188Z,1062.32
2017-01-06T05:41:52.168Z,1062.29
2017-01-06T05:42:52.148Z,1062.24
2017-01-06T05:43:52.128Z,1062.17
2017-01-06T05:44:52.109Z,1062.1
2017-01-06T05:45:52.089Z,1062.01
2017-01-06T05:46:52.069Z,1061.96
2017-01-06T05:47:52.049Z,1061.87
2017-01-06T05:48:52.030Z,1061.83
2017-01-06T05:49:52.010Z,1061.8
2017-01-06T05:50:51.990Z,1061.78
2017-01-06T05:51:51.971Z,1061.78
2017-01-06T05:52:51.951Z,1061.81
2017-01-06T05:53:51.931Z,1061.74
2017-01-06T05:54:51.912Z,1061.72
2017-01-06T05:55:51.893Z,1061.69
2017-01-06T05:56:51.873Z,1061.71
2017-01-06T05:57:51.855Z,1061.71
2017-01-06T05:58:51.834Z,1061.79
2017-01-06T05:59:51.815Z,1061.78
2017-01-06T06:00:51.795Z,1061.8
2017-01-06T06:01:51.776Z,1061.79
2017-01-06T06:02:51.756Z,1061.77
2017-01-06T06:03:51.737Z,1061.78
2017-01-06T06:04:51.717Z,1061.79
2017-01-06T06:05:51.698Z,1061.77
2017-01-06T06:06:51.679Z,1061.73
2017-01-06T06:07:51.660Z,1061.73
2017-01-06T06:08:51.640Z,1061.69
2017-01-06T06:09:51.621Z,1061.68
2017-01-06T06:10:51.602Z,1061.62
2017-01-06T06:11:51.582Z,1061.62
2017-01-06T06:12:51.563Z,1061.59
2017-01-06T06:13:51.544Z,1061.56
2017-01-06T06:14:51.525Z,1061.58
2017-01-06T06:15:51.505Z,1061.57
2017-01-06T06:16:51.486Z,1061.59
2017-01-06T06:17:51.468Z,1061.6
2017-01-06T06:18:51.448Z,1061.65
2017-01-06T06:19:51.429Z,1061.67
2017-01-06T06:20:51.409Z,1061.69
2017-01-06T06:21:51.390Z,1061.65
2017-01-06T06:22:51.371Z,1061.66
2017-01-06T06:23:51.352Z,1061.63
2017-01-06T06:24:51.333Z,1061.62
2017-01-06T06:25:51.314Z,1061.62
2017-01-06T06:26:51.293Z,1061.64
2017-01-06T06:27:51.276Z,1061.63
2017-01-06T06:28:51.256Z,1061.61
2017-01-06T06:29:51.237Z,1061.59
2017-01-06T06:30:51.220Z,1061.57
2017-01-06T06:31:51.200Z,1061.55
2017-01-06T06:32:51.181Z,1061.62
2017-01-06T06:33:51.161Z,1061.7
2017-01-06T06:34:51.142Z,1061.73
2017-01-06T06:35:51.128Z,1061.74
2017-01-06T06:36:51.105Z,1061.79
2017-01-06T06:37:51.085Z,1061.84
2017-01-06T06:38:51.069Z,1061.81
2017-01-06T06:39:51.048Z,1061.89
2017-01-06T06:40:51.028Z,1061.94
2017-01-06T06:41:51.010Z,1061.95
2017-01-06T06:42:50.990Z,1061.99
2017-01-06T06:43:50.971Z,1062.02
2017-01-06T06:44:50.952Z,1061.99
2017-01-06T06:45:50.933Z,1061.96
2017-01-06T06:46:50.914Z,1061.92
2017-01-06T06:47:50.896Z,1061.89
2017-01-06T06:48:50.876Z,1061.83
2017-01-06T06:49:50.857Z,1061.81
2017-01-06T06:50:50.840Z,1061.73
2017-01-06T06:51:50.818Z,1061.71
2017-01-06T06:52:50.799Z,1061.7
2017-01-06T06:53:50.781Z,1061.72
2017-01-06T06:54:50.762Z,1061.69
2017-01-06T06:55:50.742Z,1061.67
2017-01-06T06:56:50.725Z,1061.64
2017-01-06T06:57:50.705Z,1061.64
2017-01-06T06:58:50.686Z,1061.63
2017-01-06T06:59:50.667Z,1061.59
2017-01-06T07:00:50.648Z,1061.55
2017-01-06T07:01:50.630Z,1061.56
2017-01-06T07:02:50.612Z,1061.59
2017-01-06T07:03:50.591Z,1061.57
2017-01-06T07:04:50.573Z,1061.59
2017-01-06T07:05:50.554Z,1061.61
2017-01-06T07:06:50.534Z,1061.64
2017-01-06T07:07:50.516Z,1061.67
2017-01-06T07:08:50.497Z,1061.66
2017-01-06T07:09:50.479Z,1061.74
2017-01-06T07:10:50.458Z,1061.74
2017-01-06T07:11:50.440Z,1061.79
2017-01-06T07:12:50.421Z,1061.85
2017-01-06T07:13:50.402Z,1061.86
2017-01-06T07:14:50.383Z,1061.95
2017-01-06T07:15:50.364Z,1061.94
2017-01-06T07:16:50.346Z,1061.95
2017-01-06T07:17:50.326Z,1061.96
2017-01-06T07:18:50.307Z,1061.98
2017-01-06T07:19:50.289Z,1061.98
2017-01-06T07:20:50.271Z,1061.97
2017-01-06T07:21:50.251Z,1061.93
2017-01-06T07:22:50.232Z,1061.89
2017-01-06T07:23:50.214Z,1061.96
2017-01-06T07:24:50.194Z,1061.97
2017-01-06T07:25:50.175Z,1061.99
2017-01-06T07:26:50.157Z,1061.99
2017-01-06T07:27:50.139Z,1062.08
2017-01-06T07:28:50.119Z,1062.11
2017-01-06T07:29:50.100Z,1062.11
2017-01-06T07:30:50.082Z,1062.18
2017-01-06T07:31:50.064Z,1062.17
2017-01-06T07:32:50.044Z,1062.18
2017-01-06T07:33:50.025Z,1062.23
2017-01-06T07:34:50.007Z,1062.22
2017-01-06T07:35:49.987Z,1062.23
2017-01-06T07:36:49.969Z,1062.19
2017-01-06T07:37:49.950Z,1062.17
2017-01-06T07:38:49.932Z,1062.12
2017-01-06T07:39:49.912Z,1062.06
2017-01-06T07:40:49.894Z,1062.04
2017-01-06T07:41:49.876Z,1062
2017-01-06T07:42:49.857Z,1061.94
2017-01-06T07:43:49.838Z,1061.87
2017-01-06T07:44:49.819Z,1061.83
2017-01-06T07:45:49.800Z,1061.78
2017-01-06T07:46:49.781Z,1061.76
2017-01-06T07:47:49.762Z,1061.71
2017-01-06T07:48:49.744Z,1061.71
2017-01-06T07:49:49.726Z,1061.71
2017-01-06T07:50:49.706Z,1061.7
2017-01-06T07:51:49.688Z,1061.71
2017-01-06T07:52:49.670Z,1061.75
2017-01-06T07:53:49.651Z,1061.74
2017-01-06T07:54:49.632Z,1061.7
2017-01-06T07:55:49.613Z,1061.71
2017-01-06T07:56:49.602Z,1061.75
2017-01-06T07:57:49.577Z,1061.73
2017-01-06T07:58:49.558Z,1061.76
2017-01-06T07:59:49.540Z,1061.74
2017-01-06T08:00:49.522Z,1061.75
2017-01-06T08:01:49.503Z,1061.8
2017-01-06T08:02:49.484Z,1061.81
2017-01-06T08:03:49.468Z,1061.81
2017-01-06T08:04:49.448Z,1061.82
2017-01-06T08:05:49.430Z,1061.82
2017-01-06T08:06:49.412Z,1061.82
2017-01-06T08:07:49.393Z,1061.8
2017-01-06T08:08:49.374Z,1061.79
2017-01-06T08:09:49.357Z,1061.77
2017-01-06T08:10:49.339Z,1061.81
2017-01-06T08:11:49.321Z,1061.82
2017-01-06T08:12:49.301Z,1061.79
2017-01-06T08:13:49.282Z,1061.81
2017-01-06T08:14:49.264Z,1061.77
2017-01-06T08:15:49.245Z,1061.79
2017-01-06T08:16:49.227Z,1061.74
2017-01-06T08:17:49.209Z,1061.74
2017-01-06T08:18:49.192Z,1061.72
2017-01-06T08:19:49.173Z,1061.64
2017-01-06T08:20:49.153Z,1061.57
2017-01-06T08:21:49.135Z,1061.54
2017-01-06T08:22:49.117Z,1061.49
2017-01-06T08:23:49.098Z,1061.46
2017-01-06T08:24:49.080Z,1061.44
2017-01-06T08:25:49.063Z,1061.38
2017-01-06T08:26:49.043Z,1061.38
2017-01-06T08:27:49.025Z,1061.32
2017-01-06T08:28:49.007Z,1061.31
2017-01-06T08:29:48.989Z,1061.34
2017-01-06T08:30:48.970Z,1061.37
2017-01-06T08:31:48.952Z,1061.47
2017-01-06T08:32:48.935Z,1061.49
2017-01-06T08:33:48.917Z,1061.54
2017-01-06T08:34:48.898Z,1061.6
2017-01-06T08:35:48.880Z,1061.65
2017-01-06T08:36:48.862Z,1061.65
2017-01-06T08:37:48.843Z,1061.7
2017-01-06T08:38:48.825Z,1061.73
2017-01-06T08:39:48.807Z,1061.74
2017-01-06T08:40:48.794Z,1061.72
2017-01-06T08:41:48.771Z,1061.72
2017-01-06T08:42:48.753Z,1061.7
2017-01-06T08:43:48.734Z,1061.68
2017-01-06T08:44:48.717Z,1061.64
2017-01-06T08:45:48.698Z,1061.63
2017-01-06T08:46:48.680Z,1061.59
2017-01-06T08:47:48.662Z,1061.49
2017-01-06T08:48:48.643Z,1061.45
2017-01-06T08:49:48.627Z,1061.37
2017-01-06T08:50:48.608Z,1061.38
2017-01-06T08:51:48.590Z,1061.27
2017-01-06T08:52:48.572Z,1061.18
2017-01-06T08:53:48.554Z,1061.09
2017-01-06T08:54:48.538Z,1061.11
2017-01-06T08:55:48.519Z,1061.09
2017-01-06T08:56:48.501Z,1061.08
2017-01-06T08:57:48.482Z,1061.01
2017-01-06T08:58:48.465Z,1061.03
2017-01-06T08:59:48.446Z,1061.02
2017-01-06T09:00:48.428Z,1061.08
2017-01-06T09:01:48.411Z,1061.09
2017-01-06T09:02:48.393Z,1061.12
2017-01-06T09:03:48.376Z,1061.08
2017-01-06T09:04:48.358Z,1061.07
2017-01-06T09:05:48.341Z,1060.99
2017-01-06T09:06:48.323Z,1060.9
2017-01-06T09:07:48.304Z,1060.8
2017-01-06T09:08:48.287Z,1060.67
2017-01-06T09:09:48.270Z,1060.6
2017-01-06T09:10:48.251Z,1060.49
2017-01-06T09:11:48.234Z,1060.34
2017-01-06T09:12:48.217Z,1060.29
2017-01-06T09:13:48.200Z,1060.23
2017-01-06T09:14:48.182Z,1060.12
2017-01-06T09:15:48.165Z,1060.02
2017-01-06T09:16:48.148Z,1059.98
2017-01-06T09:17:48.131Z,1059.9
2017-01-06T09:18:48.113Z,1059.92
2017-01-06T09:19:48.096Z,1059.89
2017-01-06T09:20:48.080Z,1059.91
2017-01-06T09:21:48.062Z,1059.94
2017-01-06T09:22:48.045Z,1059.95
2017-01-06T09:23:48.029Z,1059.95
2017-01-06T09:24:48.012Z,1059.97
2017-01-06T09:25:47.996Z,1060.04
2017-01-06T09:26:47.978Z,1060.04
2017-01-06T09:27:47.962Z,1060.02
2017-01-06T09:28:47.946Z,1060.07
2017-01-06T09:29:47.928Z,1060.07
2017-01-06T09:30:47.912Z,1060.07
2017-01-06T09:31:47.895Z,1060
2017-01-06T09:32:47.879Z,1059.97
2017-01-06T09:33:47.862Z,1059.9
2017-01-06T09:34:47.846Z,1059.83
2017-01-06T09:35:47.829Z,1059.79
2017-01-06T09:36:47.812Z,1059.75
2017-01-06T09:37:47.796Z,1059.74
2017-01-06T09:38:47.780Z,1059.74
2017-01-06T09:39:47.764Z,1059.75
2017-01-06T09:40:47.747Z,1059.77
2017-01-06T09:41:47.731Z,1059.81
2017-01-06T09:42:47.715Z,1059.81
2017-01-06T09:43:47.698Z,1059.75
2017-01-06T09:44:47.682Z,1059.75
2017-01-06T09:45:47.669Z,1059.79
2017-01-06T09:46:47.652Z,1059.86
2017-01-06T09:47:47.633Z,1059.94
2017-01-06T09:48:47.617Z,1060.03
2017-01-06T09:49:47.601Z,1060.13
2017-01-06T09:50:47.584Z,1060.17
2017-01-06T09:51:47.567Z,1060.25
2017-01-06T09:52:47.551Z,1060.35
2017-01-06T09:53:47.535Z,1060.44
2017-01-06T09:54:47.518Z,1060.53
2017-01-06T09:55:47.503Z,1060.59
2017-01-06T09:56:47.485Z,1060.65
2017-01-06T09:57:47.469Z,1060.68
2017-01-06T09:58:47.452Z,1060.69
2017-01-06T09:59:47.435Z,1060.67
2017-01-06T10:00:47.418Z,1060.63
2017-01-06T10:01:47.401Z,1060.6
2017-01-06T10:02:47.385Z,1060.54
2017-01-06T10:03:47.368Z,1060.48
2017-01-06T10:04:47.651Z,1060.41
2017-01-06T10:05:47.334Z,1060.37
2017-01-06T10:06:47.317Z,1060.33
2017-01-06T10:07:47.301Z,1060.3
2017-01-06T10:08:47.284Z,1060.31
2017-01-06T10:09:47.267Z,1060.29
2017-01-06T10:10:47.251Z,1060.24
2017-01-06T10:11:47.234Z,1060.2
2017-01-06T10:12:47.216Z,1060.16
2017-01-06T10:13:47.199Z,1060.14
2017-01-06T10:14:47.183Z,1060.12
2017-01-06T10:15:47.166Z,1060.04
2017-01-06T10:16:47.149Z,1059.95
2017-01-06T10:17:47.133Z,1059.87
2017-01-06T10:18:47.116Z,1059.8
2017-01-06T10:19:47.101Z,1059.69
2017-01-06T10:20:47.083Z,1059.5
2017-01-06T10:21:47.066Z,1059.43
2017-01-06T10:22:47.051Z,1059.32
2017-01-06T10:23:47.034Z,1059.26
2017-01-06T10:24:47.017Z,1059.11
2017-01-06T10:25:47.002Z,1058.9
2017-01-06T10:26:46.992Z,1058.82
2017-01-06T10:27:46.969Z,1058.62
2017-01-06T10:28:46.955Z,1058.53
2017-01-06T10:29:46.938Z,1058.4
2017-01-06T10:30:46.922Z,1058.27
2017-01-06T10:31:46.908Z,1058.18
2017-01-06T10:32:46.891Z,1058.16
2017-01-06T10:33:46.875Z,1058.02
2017-01-06T10:34:46.859Z,1058.01
2017-01-06T10:35:46.844Z,1058.08
2017-01-06T10:36:46.828Z,1058
2017-01-06T10:37:46.814Z,1057.98
2017-01-06T10:38:46.798Z,1058.01
2017-01-06T10:39:46.783Z,1058.03
2017-01-06T10:40:46.768Z,1058.06
2017-01-06T10:41:46.753Z,1058.11
2017-01-06T10:42:46.738Z,1058.16
2017-01-06T10:43:46.723Z,1058.22
2017-01-06T10:44:46.708Z,1058.28
2017-01-06T10:45:46.694Z,1058.35
2017-01-06T10:46:46.678Z,1058.46
2017-01-06T10:47:46.663Z,1058.46
2017-01-06T10:48:46.649Z,1058.5
2017-01-06T10:49:46.633Z,1058.59
2017-01-06T10:50:46.620Z,1058.68
2017-01-06T10:51:46.604Z,1058.74
2017-01-06T10:52:46.589Z,1058.79
2017-01-06T10:53:46.573Z,1058.83
2017-01-06T10:54:46.559Z,1058.89
2017-01-06T10:55:46.544Z,1058.93
2017-01-06T10:56:46.528Z,1059
2017-01-06T10:57:46.513Z,1059
2017-01-06T10:58:46.499Z,1059.06
2017-01-06T10:59:46.484Z,1059.06
2017-01-06T11:00:46.468Z,1059.02
2017-01-06T11:01:46.453Z,1059
2017-01-06T11:02:46.438Z,1058.95
2017-01-06T11:03:46.425Z,1058.83
2017-01-06T11:04:46.408Z,1058.74
2017-01-06T11:05:46.392Z,1058.67
2017-01-06T11:06:46.379Z,1058.58
2017-01-06T11:07:46.362Z,1058.55
2017-01-06T11:08:46.347Z,1058.45
2017-01-06T11:09:46.332Z,1058.38
2017-01-06T11:10:46.317Z,1058.32
2017-01-06T11:11:46.301Z,1058.27
2017-01-06T11:12:46.300Z,1058.21
2017-01-06T11:13:46.272Z,1058.24
2017-01-06T11:14:46.257Z,1058.18
2017-01-06T11:15:46.242Z,1058.14
2017-01-06T11:16:46.227Z,1058.13
2017-01-06T11:17:46.213Z,1058.08
2017-01-06T11:18:46.198Z,1058.09
2017-01-06T11:19:46.182Z,1058.11
2017-01-06T11:20:46.168Z,1058.1
2017-01-06T11:21:46.153Z,1058.08
2017-01-06T11:22:46.137Z,1058.16
2017-01-06T11:23:46.123Z,1058.23
2017-01-06T11:24:46.108Z,1058.2
2017-01-06T11:25:46.092Z,1058.21
2017-01-06T11:26:46.078Z,1058.25
2017-01-06T11:27:46.063Z,1058.22
2017-01-06T11:28:46.048Z,1058.26
2017-01-06T11:29:46.033Z,1058.3
2017-01-06T11:30:46.020Z,1058.35
2017-01-06T11:31:46.004Z,1058.4
2017-01-06T11:32:45.989Z,1058.5
2017-01-06T11:33:45.974Z,1058.62
2017-01-06T11:34:45.959Z,1058.7
2017-01-06T11:35:45.944Z,1058.74
2017-01-06T11:36:45.928Z,1058.75
2017-01-06T11:37:45.914Z,1058.78
2017-01-06T11:38:45.900Z,1058.73
2017-01-06T11:39:45.884Z,1058.73
2017-01-06T11:40:45.868Z,1058.67
2017-01-06T11:41:45.853Z,1058.69
2017-01-06T11:42:45.838Z,1058.72
2017-01-06T11:43:45.823Z,1058.74
2017-01-06T11:44:45.808Z,1058.77
2017-01-06T11:45:45.794Z,1058.75
2017-01-06T11:46:45.778Z,1058.78
2017-01-06T11:47:45.762Z,1058.81
2017-01-06T11:48:45.748Z,1058.79
2017-01-06T11:49:45.732Z,1058.77
2017-01-06T11:50:45.717Z,1058.73
2017-01-06T11:51:45.700Z,1058.73
2017-01-06T11:52:45.686Z,1058.79
2017-01-06T11:53:45.671Z,1058.8
2017-01-06T11:54:45.655Z,1058.88
2017-01-06T11:55:45.639Z,1058.91
2017-01-06T11:56:45.624Z,1058.92
2017-01-06T11:57:45.610Z,1058.93
2017-01-06T11:58:45.593Z,1058.89
2017-01-06T11:59:45.577Z,1058.92
2017-01-06T12:00:45.563Z,1058.9
2017-01-06T12:01:45.548Z,1058.85
2017-01-06T12:02:45.531Z,1058.88
2017-01-06T12:03:45.516Z,1058.9
2017-01-06T12:04:45.501Z,1058.83
2017-01-06T12:05:45.486Z,1058.86
2017-01-06T12:06:45.469Z,1058.81
2017-01-06T12:07:45.454Z,1058.82
2017-01-06T12:08:45.439Z,1058.81